Latest Weather Observations for Geelong Racecourse

IDV60801

Issued at 10:02 am EDT Tuesday 23 December 2014 (issued every 30 minutes, with the page automatically refreshed every 10 minutes)

About weather observations | Map of weather stations | Latest weather observations for VIC | Other Formats
Station Details ID: 087184 Name: GEELONG RACECOURSE Lat: -38.17 Lon: 144.38 Height: 12.9 m
Data from the previous 72 hours. | See also: Recent months at Geelong Racecourse
Date/Time
EDT
Temp
°C
App
Temp
°C
Dew
Point
Rel
Hum
%
Delta-T
°C
Wind Press
QNH
hPa
Press
MSL
hPa
Rain
since 9 am
mm
Dir
 
Spd
km/h
Gust
km/h
Spd
kts
Gust
kts
23/10:00am 24.3 23.4 15.8 59 5.2 WNW 15 24 8 13 1008.2 1008.2 0.0
23/09:30am 22.0 20.1 15.1 65 4.1 WNW 19 30 10 16 1008.0 1008.0 0.0
23/09:00am 21.7 21.0 15.5 68 3.7 W 13 20 7 11 1007.7 1007.7 0.0
23/08:30am 21.5 20.5 15.6 69 3.5 WNW 15 24 8 13 1007.5 1007.5 0.0
23/08:00am 21.1 21.6 16.5 75 2.8 NW 9 17 5 9 1007.4 1007.4 0.0
23/07:30am 20.4 22.0 16.8 80 2.2 N 4 4 2 2 1007.1 1007.1 0.0
23/07:00am 20.3 21.5 17.3 83 1.8 NNW 7 11 4 6 1006.9 1006.9 0.0
23/06:30am 19.5 20.5 16.9 85 1.6 N 7 9 4 5 1006.7 1006.7 0.0
23/06:00am 20.4 21.2 16.4 78 2.4 WNW 7 13 4 7 1006.5 1006.5 0.0
23/05:30am 20.2 20.4 16.8 81 2.1 NW 11 17 6 9 1006.3 1006.3 0.0
23/05:00am 20.2 20.6 17.2 83 1.8 NW 11 17 6 9 1006.0 1006.0 0.0
23/04:30am 19.8 21.4 17.8 88 1.2 NNW 6 7 3 4 1005.9 1005.9 0.0
23/04:00am 19.4 20.5 18.1 92 0.8 WNW 9 15 5 8 1006.0 1006.0 0.0
23/03:30am 18.1 18.8 17.0 93 0.7 WSW 9 11 5 6 1006.1 1006.1 0.0
23/03:00am 17.7 18.8 16.6 93 0.7 W 6 9 3 5 1006.5 1006.5 0.0
23/02:30am 17.8 18.9 16.7 93 0.7 N 6 7 3 4 1006.6 1006.6 0.0
23/02:00am 17.7 19.6 16.6 93 0.7 N 2 6 1 3 1007.1 1007.1 0.0
23/01:30am 17.7 18.6 16.6 93 0.7 SSE 7 11 4 6 1006.6 1006.6 0.0
23/01:00am 17.9 20.1 16.6 92 0.8 CALM 0 4 0 2 1006.8 1006.8 0.0
23/12:30am 17.9 19.4 16.6 92 0.8 SE 4 6 2 3 1006.6 1006.6 0.0
23/12:00am 17.9 19.0 16.6 92 0.8 SSE 6 7 3 4 1006.4 1006.4 0.0
 
Date/Time
EDT
Temp
°C
App
Temp
°C
Dew
Point
Rel
Hum
%
Delta-T
°C
Wind Press
QNH
hPa
Press
MSL
hPa
Rain
since 9 am
mm
Dir
 
Spd
km/h
Gust
km/h
Spd
kts
Gust
kts
22/11:30pm 18.0 18.9 16.7 92 0.8 SW 7 15 4 8 1006.8 1006.8 0.0
22/11:00pm 18.0 18.6 16.7 92 0.8 S 9 11 5 6 1007.1 1007.1 0.0
22/10:30pm 18.1 19.7 16.8 92 0.8 S 4 6 2 3 1007.7 1007.7 0.0
22/10:00pm 18.5 19.8 17.2 92 0.8 S 6 9 3 5 1007.2 1007.2 0.0
22/09:30pm 18.9 20.2 17.0 89 1.1 S 6 11 3 6 1007.0 1007.0 0.0
22/09:00pm 19.3 20.4 17.1 87 1.3 SW 7 17 4 9 1007.0 1007.0 0.0
22/08:30pm 19.2 20.3 17.0 87 1.3 SSW 7 13 4 7 1007.4 1007.4 0.0
22/08:00pm 19.6 20.8 16.8 84 1.7 WSW 6 7 3 4 1007.7 1007.7 0.0
22/07:30pm 19.6 20.6 16.8 84 1.7 SW 7 11 4 6 1007.2 1007.2 0.0
22/07:00pm 19.9 20.5 16.7 82 1.9 S 9 13 5 7 1006.9 1006.9 0.0
22/06:30pm 20.1 19.5 16.7 81 2.1 S 15 22 8 12 1006.5 1006.5 0.0
22/06:00pm 19.9 20.5 16.7 82 1.9 S 9 13 5 7 1007.4 1007.4 0.0
22/05:30pm 20.1 20.4 16.9 82 1.9 SSE 11 19 6 10 1007.9 1007.9 0.0
22/05:00pm 20.0 20.1 16.6 81 2.1 S 11 15 6 8 1008.3 1008.3 0.0
22/04:30pm 19.6 19.0 16.6 83 1.8 SSE 15 24 8 13 1008.4 1008.4 0.0
22/04:00pm 19.4 18.3 16.4 83 1.8 SSE 17 22 9 12 1009.2 1009.2 0.0
22/03:30pm 20.1 19.1 16.5 80 2.2 S 17 22 9 12 1009.8 1009.8 0.0
22/03:00pm 19.8 19.6 16.8 83 1.8 S 13 20 7 11 1010.7 1010.7 0.0
22/02:30pm 18.8 18.2 16.6 87 1.3 SSE 15 20 8 11 1011.1 1011.1 0.0
22/02:00pm 18.9 17.3 16.1 84 1.7 SSE 19 26 10 14 1011.6 1011.6 0.0
22/01:30pm 19.1 17.2 15.8 81 2.0 SSE 20 30 11 16 1011.9 1011.9 0.0
22/01:00pm 19.3 17.1 16.0 81 2.0 S 22 32 12 17 1012.4 1012.4 0.0
22/12:30pm 18.7 17.0 15.8 83 1.7 SSE 19 26 10 14 1012.8 1012.8 0.0
22/12:00pm 19.1 17.8 15.8 81 2.0 SSE 17 24 9 13 1013.2 1013.2 0.0
22/11:30am 19.1 17.8 15.8 81 2.0 S 17 22 9 12 1013.2 1013.2 0.0
22/11:00am 18.6 18.1 15.8 84 1.7 SSE 13 20 7 11 1013.3 1013.3 0.0
22/10:30am 18.1 17.1 15.7 86 1.4 SSE 15 20 8 11 1013.4 1013.4 0.0
22/10:00am 18.1 16.8 15.7 86 1.4 SSE 17 24 9 13 1013.7 1013.7 0.0
22/09:30am 18.1 17.4 15.5 85 1.5 SSE 13 20 7 11 1013.8 1013.8 0.0
22/09:00am 18.3 18.1 15.6 84 1.6 SE 11 17 6 9 1013.6 1013.6 0.0
22/08:30am 18.0 17.5 15.8 87 1.3 SE 13 20 7 11 1013.6 1013.6 0.0
22/08:00am 17.6 17.4 15.8 89 1.1 SE 11 15 6 8 1013.4 1013.4 0.0
22/07:30am 17.1 16.9 15.6 91 0.9 SE 11 17 6 9 1013.4 1013.4 0.0
22/07:00am 16.7 16.0 15.4 92 0.8 SSE 13 17 7 9 1013.1 1013.1 0.0
22/06:30am 16.6 16.2 15.3 92 0.8 SSE 11 19 6 10 1013.1 1013.1 0.0
22/06:00am 16.5 15.7 15.2 92 0.8 SSE 13 19 7 10 1013.0 1013.0 0.0
22/05:30am 16.4 16.0 15.1 92 0.8 SSE 11 20 6 11 1012.8 1012.8 0.0
22/05:00am 16.4 15.6 15.1 92 0.8 SSE 13 19 7 10 1012.7 1012.7 0.0
22/04:30am 16.4 16.4 15.1 92 0.8 S 9 13 5 7 1012.8 1012.8 0.0
22/04:00am 16.5 16.1 15.2 92 0.8 S 11 17 6 9 1013.0 1013.0 0.0
22/03:30am 16.4 16.0 15.1 92 0.8 SSE 11 15 6 8 1013.4 1013.4 0.0
22/03:00am 16.3 16.6 15.0 92 0.8 S 7 15 4 8 1013.4 1013.4 0.0
22/02:30am 16.2 15.7 14.9 92 0.7 S 11 17 6 9 1013.6 1013.6 0.0
22/02:00am 16.3 16.2 15.0 92 0.8 S 9 15 5 8 1013.8 1013.8 0.0
22/01:30am 16.1 15.2 14.8 92 0.7 S 13 17 7 9 1014.1 1014.1 0.0
22/01:00am 16.2 15.3 14.9 92 0.7 S 13 17 7 9 1014.4 1014.4 0.0
22/12:30am 16.7 16.8 15.4 92 0.8 SSE 9 15 5 8 1014.8 1014.8 0.0
22/12:00am 16.5 15.0 15.2 92 0.8 S 17 24 9 13 1014.7 1014.7 0.0
 
Date/Time
EDT
Temp
°C
App
Temp
°C
Dew
Point
Rel
Hum
%
Delta-T
°C
Wind Press
QNH
hPa
Press
MSL
hPa
Rain
since 9 am
mm
Dir
 
Spd
km/h
Gust
km/h
Spd
kts
Gust
kts
21/11:30pm 16.8 14.8 15.5 92 0.8 S 20 30 11 16 1014.6 1014.6 0.0
21/11:00pm 16.8 15.4 15.5 92 0.8 S 17 22 9 12 1014.6 1014.6 0.0
21/10:30pm 17.1 15.2 15.8 92 0.8 S 20 28 11 15 1014.4 1014.4 0.0
21/10:00pm 17.3 15.5 16.0 92 0.8 S 20 28 11 15 1014.5 1014.5 0.0
21/09:30pm 17.8 15.8 16.5 92 0.8 S 22 35 12 19 1014.0 1014.0 0.0
21/09:00pm 18.4 15.6 15.3 82 1.8 S 24 35 13 19 1013.5 1013.5 0.0
21/08:30pm 19.1 17.0 14.8 76 2.5 S 19 26 10 14 1013.2 1013.2 0.0
21/08:00pm 20.9 18.4 14.1 65 3.9 S 20 26 11 14 1012.5 1012.5 0.0
21/07:30pm 22.4 19.2 13.2 56 5.3 S 22 28 12 15 1012.2 1012.2 0.0
21/07:00pm 22.6 20.4 14.4 60 4.8 SSW 19 26 10 14 1011.9 1011.9 0.0
21/06:30pm 23.3 21.6 14.8 59 5.0 S 17 22 9 12 1011.6 1011.6 0.0
21/06:00pm 23.9 21.8 13.7 53 6.0 SSE 17 22 9 12 1011.7 1011.7 0.0
21/05:30pm 24.0 22.3 14.7 56 5.5 S 17 24 9 13 1011.8 1011.8 0.0
21/05:00pm 23.6 20.9 14.6 57 5.3 S 22 30 12 16 1012.1 1012.1 0.0
21/04:30pm 22.7 20.1 14.8 61 4.7 S 22 28 12 15 1012.1 1012.1 0.0
21/04:00pm 23.3 19.6 15.1 60 4.9 S 28 39 15 21 1012.5 1012.5 0.0
21/03:30pm 24.6 21.3 15.0 55 5.7 S 26 39 14 21 1012.3 1012.3 0.0
21/03:17pm 25.6 22.0 15.3 53 6.2 S 28 44 15 24 1012.2 1012.2 0.0
21/03:00pm 30.9 27.8 12.3 32 11.0 SSE 20 30 11 16 1011.6 1011.6 0.0
21/02:30pm 30.6 29.0 13.8 35 10.1 NNE 15 20 8 11 1011.7 1011.7 0.0
21/02:00pm 29.4 27.9 13.2 37 9.6 NE 13 19 7 10 1012.2 1012.2 0.0
21/01:30pm 27.9 26.6 13.8 42 8.4 NE 13 19 7 10 1012.5 1012.5 0.0
21/01:00pm 27.0 25.1 13.0 42 8.2 NE 15 19 8 10 1013.0 1013.0 0.0
21/12:30pm 27.6 27.0 12.4 39 8.8 ENE 7 11 4 6 1013.5 1013.5 0.0
21/12:00pm 25.2 24.6 11.7 43 7.7 NE 6 9 3 5 1013.9 1013.9 0.0
21/11:30am 23.8 22.8 12.4 48 6.5 NNE 9 15 5 8 1014.0 1014.0 0.0
21/11:00am 22.9 22.7 13.7 56 5.4 NE 7 13 4 7 1014.1 1014.1 0.0
21/10:30am 21.8 21.9 13.9 61 4.6 NE 6 11 3 6 1014.4 1014.4 0.0
21/10:00am 20.4 19.6 14.1 67 3.6 NE 11 17 6 9 1014.3 1014.3 0.0
21/09:30am 20.2 19.7 15.0 72 3.1 ENE 11 17 6 9 1014.6 1014.6 0.0
21/09:00am 19.3 18.8 15.0 76 2.5 ENE 11 17 6 9 1014.8 1014.8 0.0
21/08:30am 18.3 18.3 15.2 82 1.8 NE 9 13 5 7 1014.7 1014.7 -
21/08:00am 17.9 18.5 15.9 88 1.2 ENE 7 13 4 7 1014.5 1014.5 -
21/07:30am 16.0 16.8 14.7 92 0.7 ESE 4 6 2 3 1014.6 1014.6 -
21/07:00am 14.3 14.5 13.2 93 0.6 SSE 4 6 2 3 1014.8 1014.8 -
21/06:30am 13.2 13.1 12.1 93 0.6 SSE 4 6 2 3 1015.0 1015.0 -
21/06:00am 13.5 13.9 12.4 93 0.6 SSE 2 4 1 2 1014.7 1014.7 -
21/05:30am 13.5 13.9 12.4 93 0.6 WNW 2 6 1 3 1014.6 1014.6 -
21/05:00am 13.1 13.0 12.0 93 0.6 NW 4 6 2 3 1014.5 1014.5 -
21/04:30am 12.8 13.0 11.7 93 0.6 ENE 2 6 1 3 1014.2 1014.2 -
21/04:00am 13.0 12.8 11.9 93 0.6 E 4 6 2 3 1014.2 1014.2 -
21/03:30am 11.6 11.4 10.5 93 0.6 E 2 2 1 1 1014.5 1014.5 -
21/03:00am 12.0 12.3 10.9 93 0.6 CALM 0 0 0 0 1014.9 1014.9 0.0
21/02:30am 12.3 12.7 11.2 93 0.6 CALM 0 0 0 0 1015.5 1015.5 -
21/02:00am 12.4 12.8 11.3 93 0.6 CALM 0 0 0 0 1015.9 1015.9 -
21/01:30am 12.7 13.2 11.6 93 0.6 CALM 0 0 0 0 1016.1 1016.1 -
21/01:00am 12.7 13.1 11.4 92 0.7 CALM 0 0 0 0 1016.7 1016.7 -
21/12:30am 12.9 13.4 11.6 92 0.7 CALM 0 0 0 0 1017.0 1017.0 -
21/12:00am 13.0 13.5 11.7 92 0.7 CALM 0 0 0 0 1017.5 1017.5 -
 
Date/Time
EDT
Temp
°C
App
Temp
°C
Dew
Point
Rel
Hum
%
Delta-T
°C
Wind Press
QNH
hPa
Press
MSL
hPa
Rain
since 9 am
mm
Dir
 
Spd
km/h
Gust
km/h
Spd
kts
Gust
kts
20/11:30pm 13.7 14.1 12.4 92 0.7 S 2 4 1 2 1017.6 1017.6 -
20/11:00pm 14.3 14.7 12.5 89 1.0 S 2 4 1 2 1017.9 1017.9 -
20/10:30pm 14.5 14.4 12.2 86 1.2 SSE 4 7 2 4 1018.0 1018.0 -
20/10:00pm 15.0 14.9 12.1 83 1.6 SSE 4 6 2 3 1018.1 1018.1 -
20/09:30pm 15.3 14.8 12.1 81 1.7 SSE 6 7 3 4 1018.0 1018.0 -
20/09:00pm 15.8 14.7 12.0 78 2.1 SSE 9 13 5 7 1017.8 1017.8 -
20/08:30pm 16.5 14.9 11.6 73 2.7 S 11 19 6 10 1017.9 1017.9 -
20/08:00pm 17.2 14.4 11.5 69 3.1 S 17 20 9 11 1017.7 1017.7 -
20/07:30pm 17.7 14.5 11.3 66 3.5 SSE 19 24 10 13 1017.4 1017.4 -
20/07:00pm 18.5 15.2 10.8 61 4.2 S 19 24 10 13 1017.2 1017.2 -
20/06:30pm 19.0 15.6 11.3 61 4.2 S 20 26 11 14 1017.1 1017.1 -
20/06:00pm 19.3 15.9 11.3 60 4.4 S 20 30 11 16 1017.0 1017.0 -
20/05:30pm 19.6 16.1 10.9 57 4.7 S 20 28 11 15 1017.0 1017.0 -
20/05:00pm 20.0 16.5 11.0 56 4.9 S 20 30 11 16 1017.1 1017.1 -
20/04:30pm 20.2 16.7 10.9 55 5.1 SSE 20 32 11 17 1017.2 1017.2 -
20/04:00pm 20.9 17.5 11.3 54 5.3 SSE 20 30 11 16 1017.4 1017.4 -
20/03:30pm 20.4 - 11.1 55 5.1 - - - - - 1017.7 1017.7 -
20/03:00pm 21.0 17.8 11.1 53 5.4 SSE 19 28 10 15 1017.9 1017.9 0.0
20/02:30pm 21.2 18.0 11.2 53 5.5 S 19 28 10 15 1018.2 1018.2 0.0
20/02:00pm 21.8 18.6 11.2 51 5.9 SSE 19 26 10 14 1018.3 1018.3 0.0
20/01:30pm 22.0 18.8 9.9 46 6.6 S 17 24 9 13 1018.2 1018.2 0.0
20/01:00pm 22.7 20.3 8.8 41 7.4 WNW 11 19 6 10 1018.2 1018.2 0.0
20/12:30pm 21.8 19.1 9.0 44 6.8 SW 13 24 7 13 1018.5 1018.5 0.0
20/12:00pm 20.6 18.3 8.9 47 6.2 SW 11 22 6 12 1018.9 1018.9 0.0
20/11:30am 20.0 18.2 9.3 50 5.7 W 9 22 5 12 1018.9 1018.9 0.0
20/11:00am 19.0 16.0 9.2 53 5.1 WSW 15 22 8 12 1019.2 1019.2 0.0
20/10:30am 17.9 15.3 9.5 58 4.4 WSW 13 20 7 11 1019.6 1019.6 0.0

Other Formats:

Comma delimited format used in spreadsheet applications
http://www.bom.gov.au/fwo/IDV60801/IDV60801.94857.axf

JavaScript Object Notation format (JSON) in row-major order
http://www.bom.gov.au/fwo/IDV60801/IDV60801.94857.json